sensor_id;sensor_type;location;lat;lon;timestamp;pressure;altitude;pressure_sealevel;temperature;humidity
56681;BME280;42558;52.388;13.390;2022-09-09T00:02:21;100594.89;;;14.08;100.00
56681;BME280;42558;52.388;13.390;2022-09-09T00:05:14;100594.52;;;14.12;100.00
56681;BME280;42558;52.388;13.390;2022-09-09T00:07:53;100595.96;;;14.01;100.00
56681;BME280;42558;52.388;13.390;2022-09-09T00:10:34;100593.48;;;14.05;100.00
56681;BME280;42558;52.388;13.390;2022-09-09T00:13:22;100593.33;;;14.01;100.00
56681;BME280;42558;52.388;13.390;2022-09-09T00:16:11;100592.29;;;13.93;100.00
56681;BME280;42558;52.388;13.390;2022-09-09T00:19:33;100587.89;;;13.83;100.00
56681;BME280;42558;52.388;13.390;2022-09-09T00:22:16;100587.73;;;13.75;100.00
56681;BME280;42558;52.388;13.390;2022-09-09T00:24:51;100587.02;;;13.79;100.00
56681;BME280;42558;52.388;13.390;2022-09-09T00:27:34;100581.89;;;13.78;100.00
56681;BME280;42558;52.388;13.390;2022-09-09T00:30:26;100572.54;;;13.74;100.00
56681;BME280;42558;52.388;13.390;2022-09-09T00:33:00;100570.77;;;13.76;100.00
56681;BME280;42558;52.388;13.390;2022-09-09T00:35:36;100569.70;;;13.77;100.00
56681;BME280;42558;52.388;13.390;2022-09-09T00:38:40;100569.88;;;13.77;100.00
56681;BME280;42558;52.388;13.390;2022-09-09T00:43:41;100574.88;;;13.51;100.00
56681;BME280;42558;52.388;13.390;2022-09-09T00:52:17;100566.23;;;13.42;100.00
56681;BME280;42558;52.388;13.390;2022-09-09T00:55:11;100567.98;;;13.52;100.00
56681;BME280;42558;52.388;13.390;2022-09-09T00:57:42;100566.92;;;13.56;100.00
56681;BME280;42558;52.388;13.390;2022-09-09T01:00:22;100571.69;;;13.55;100.00
56681;BME280;42558;52.388;13.390;2022-09-09T01:03:16;100571.17;;;13.51;100.00
56681;BME280;42558;52.388;13.390;2022-09-09T01:11:32;100577.52;;;13.55;100.00
56681;BME280;42558;52.388;13.390;2022-09-09T01:17:04;100575.94;;;13.49;100.00
56681;BME280;42558;52.388;13.390;2022-09-09T01:20:04;100579.30;;;13.52;100.00
56681;BME280;42558;52.388;13.390;2022-09-09T01:26:21;100583.02;;;13.40;100.00
56681;BME280;42558;52.388;13.390;2022-09-09T01:28:52;100578.77;;;13.41;100.00
56681;BME280;42558;52.388;13.390;2022-09-09T01:31:42;100581.61;;;13.28;100.00
56681;BME280;42558;52.388;13.390;2022-09-09T01:34:19;100574.71;;;13.19;100.00
56681;BME280;42558;52.388;13.390;2022-09-09T01:39:33;100570.30;;;13.18;100.00
56681;BME280;42558;52.388;13.390;2022-09-09T01:42:02;100574.38;;;13.21;100.00
56681;BME280;42558;52.388;13.390;2022-09-09T01:44:34;100569.96;;;13.25;100.00
56681;BME280;42558;52.388;13.390;2022-09-09T01:47:03;100573.31;;;13.26;100.00
56681;BME280;42558;52.388;13.390;2022-09-09T01:49:30;100573.13;;;13.20;100.00
56681;BME280;42558;52.388;13.390;2022-09-09T01:51:59;100576.14;;;13.22;100.00
56681;BME280;42558;52.388;13.390;2022-09-09T01:54:30;100579.31;;;13.22;100.00
56681;BME280;42558;52.388;13.390;2022-09-09T02:00:08;100580.69;;;13.17;100.00
56681;BME280;42558;52.388;13.390;2022-09-09T02:03:10;100582.45;;;13.17;100.00
56681;BME280;42558;52.388;13.390;2022-09-09T02:05:56;100584.61;;;13.22;100.00
56681;BME280;42558;52.388;13.390;2022-09-09T02:08:48;100586.00;;;13.18;100.00
56681;BME280;42558;52.388;13.390;2022-09-09T02:11:26;100589.52;;;13.09;100.00
56681;BME280;42558;52.388;13.390;2022-09-09T02:14:10;100590.56;;;13.03;100.00
56681;BME280;42558;52.388;13.390;2022-09-09T02:16:44;100587.23;;;12.98;100.00
56681;BME280;42558;52.388;13.390;2022-09-09T02:19:29;100588.09;;;12.94;100.00
56681;BME280;42558;52.388;13.390;2022-09-09T02:22:00;100589.33;;;12.89;100.00
56681;BME280;42558;52.388;13.390;2022-09-09T02:24:34;100586.33;;;12.94;100.00
56681;BME280;42558;52.388;13.390;2022-09-09T02:27:06;100587.56;;;12.92;100.00
56681;BME280;42558;52.388;13.390;2022-09-09T02:29:42;100588.08;;;12.76;100.00
56681;BME280;42558;52.388;13.390;2022-09-09T02:32:17;100589.10;;;12.68;100.00
56681;BME280;42558;52.388;13.390;2022-09-09T02:34:52;100589.46;;;12.67;100.00
56681;BME280;42558;52.388;13.390;2022-09-09T02:37:29;100584.69;;;12.60;100.00
56681;BME280;42558;52.388;13.390;2022-09-09T02:39:58;100581.48;;;12.53;100.00
56681;BME280;42558;52.388;13.390;2022-09-09T02:42:25;100582.70;;;12.44;100.00
56681;BME280;42558;52.388;13.390;2022-09-09T02:44:52;100580.24;;;12.45;100.00
56681;BME280;42558;52.388;13.390;2022-09-09T02:47:35;100582.53;;;12.47;100.00
56681;BME280;42558;52.388;13.390;2022-09-09T02:50:38;100579.91;;;12.52;100.00
56681;BME280;42558;52.388;13.390;2022-09-09T02:53:21;100585.73;;;12.56;100.00
56681;BME280;42558;52.388;13.390;2022-09-09T02:55:58;100584.50;;;12.56;100.00
56681;BME280;42558;52.388;13.390;2022-09-09T02:58:27;100586.43;;;12.52;100.00
56681;BME280;42558;52.388;13.390;2022-09-09T03:00:55;100587.14;;;12.50;100.00
56681;BME280;42558;52.388;13.390;2022-09-09T03:03:24;100589.05;;;12.41;100.00
56681;BME280;42558;52.388;13.390;2022-09-09T03:05:51;100590.10;;;12.38;100.00
56681;BME280;42558;52.388;13.390;2022-09-09T03:08:18;100595.75;;;12.42;100.00
56681;BME280;42558;52.388;13.390;2022-09-09T03:10:44;100600.14;;;12.42;100.00
56681;BME280;42558;52.388;13.390;2022-09-09T03:13:11;100599.80;;;12.39;100.00
56681;BME280;42558;52.388;13.390;2022-09-09T03:15:39;100599.94;;;12.35;100.00
56681;BME280;42558;52.388;13.390;2022-09-09T03:18:06;100598.20;;;12.40;100.00
56681;BME280;42558;52.388;13.390;2022-09-09T03:20:33;100600.31;;;12.39;100.00
56681;BME280;42558;52.388;13.390;2022-09-09T03:23:00;100606.66;;;12.41;100.00
56681;BME280;42558;52.388;13.390;2022-09-09T03:25:28;100608.79;;;12.41;100.00
56681;BME280;42558;52.388;13.390;2022-09-09T03:27:56;100607.38;;;12.44;100.00
56681;BME280;42558;52.388;13.390;2022-09-09T03:30:25;100610.89;;;12.42;100.00
56681;BME280;42558;52.388;13.390;2022-09-09T03:32:53;100614.98;;;12.46;100.00
56681;BME280;42558;52.388;13.390;2022-09-09T03:35:20;100612.66;;;12.42;100.00
56681;BME280;42558;52.388;13.390;2022-09-09T03:37:47;100612.30;;;12.41;100.00
56681;BME280;42558;52.388;13.390;2022-09-09T03:40:14;100615.11;;;12.36;100.00
56681;BME280;42558;52.388;13.390;2022-09-09T03:42:41;100615.45;;;12.33;100.00
56681;BME280;42558;52.388;13.390;2022-09-09T03:45:09;100612.95;;;12.25;100.00
56681;BME280;42558;52.388;13.390;2022-09-09T03:47:37;100613.16;;;12.31;100.00
56681;BME280;42558;52.388;13.390;2022-09-09T03:50:06;100607.88;;;12.33;100.00
56681;BME280;42558;52.388;13.390;2022-09-09T03:52:38;100603.48;;;12.38;100.00
56681;BME280;42558;52.388;13.390;2022-09-09T03:55:06;100607.20;;;12.41;100.00
56681;BME280;42558;52.388;13.390;2022-09-09T03:57:35;100609.47;;;12.35;100.00
56681;BME280;42558;52.388;13.390;2022-09-09T04:00:07;100608.73;;;12.28;100.00
56681;BME280;42558;52.388;13.390;2022-09-09T04:02:34;100608.41;;;12.35;100.00
56681;BME280;42558;52.388;13.390;2022-09-09T04:05:01;100607.37;;;12.37;100.00
56681;BME280;42558;52.388;13.390;2022-09-09T04:07:28;100606.13;;;12.38;100.00
56681;BME280;42558;52.388;13.390;2022-09-09T04:09:55;100606.86;;;12.44;100.00
56681;BME280;42558;52.388;13.390;2022-09-09T04:12:22;100607.71;;;12.36;100.00
56681;BME280;42558;52.388;13.390;2022-09-09T04:14:49;100608.41;;;12.32;100.00
56681;BME280;42558;52.388;13.390;2022-09-09T04:17:16;100611.39;;;12.30;100.00
56681;BME280;42558;52.388;13.390;2022-09-09T04:19:43;100613.69;;;12.31;100.00
56681;BME280;42558;52.388;13.390;2022-09-09T04:22:10;100616.81;;;12.25;100.00
56681;BME280;42558;52.388;13.390;2022-09-09T04:24:37;100618.55;;;12.17;100.00
56681;BME280;42558;52.388;13.390;2022-09-09T04:27:04;100619.30;;;12.22;100.00
56681;BME280;42558;52.388;13.390;2022-09-09T04:29:31;100619.67;;;12.30;100.00
56681;BME280;42558;52.388;13.390;2022-09-09T04:31:58;100618.80;;;12.34;100.00
56681;BME280;42558;52.388;13.390;2022-09-09T04:34:25;100621.61;;;12.29;100.00
56681;BME280;42558;52.388;13.390;2022-09-09T04:36:52;100622.10;;;12.21;100.00
56681;BME280;42558;52.388;13.390;2022-09-09T04:39:18;100625.80;;;12.23;100.00
56681;BME280;42558;52.388;13.390;2022-09-09T04:41:46;100627.92;;;12.24;100.00
56681;BME280;42558;52.388;13.390;2022-09-09T04:44:14;100631.96;;;12.19;100.00
56681;BME280;42558;52.388;13.390;2022-09-09T04:46:40;100634.08;;;12.20;100.00
56681;BME280;42558;52.388;13.390;2022-09-09T04:49:07;100634.59;;;12.18;100.00
56681;BME280;42558;52.388;13.390;2022-09-09T04:51:40;100636.16;;;12.14;100.00
56681;BME280;42558;52.388;13.390;2022-09-09T04:54:07;100633.34;;;12.15;100.00
56681;BME280;42558;52.388;13.390;2022-09-09T04:56:33;100637.40;;;12.15;100.00
56681;BME280;42558;52.388;13.390;2022-09-09T04:59:00;100633.52;;;12.14;100.00
56681;BME280;42558;52.388;13.390;2022-09-09T05:01:29;100632.84;;;12.18;100.00
56681;BME280;42558;52.388;13.390;2022-09-09T05:03:56;100636.37;;;12.21;100.00
56681;BME280;42558;52.388;13.390;2022-09-09T05:06:22;100637.45;;;12.23;100.00
56681;BME280;42558;52.388;13.390;2022-09-09T05:08:50;100635.70;;;12.25;100.00
56681;BME280;42558;52.388;13.390;2022-09-09T05:11:23;100639.40;;;12.26;100.00
56681;BME280;42558;52.388;13.390;2022-09-09T05:13:51;100639.42;;;12.31;100.00
56681;BME280;42558;52.388;13.390;2022-09-09T05:16:20;100638.73;;;12.36;100.00
56681;BME280;42558;52.388;13.390;2022-09-09T05:18:48;100638.75;;;12.39;100.00
56681;BME280;42558;52.388;13.390;2022-09-09T05:21:18;100637.70;;;12.42;100.00
56681;BME280;42558;52.388;13.390;2022-09-09T05:23:46;100638.61;;;12.45;100.00
56681;BME280;42558;52.388;13.390;2022-09-09T05:26:16;100639.30;;;12.47;100.00
56681;BME280;42558;52.388;13.390;2022-09-09T05:28:44;100636.67;;;12.51;100.00
56681;BME280;42558;52.388;13.390;2022-09-09T05:31:14;100634.75;;;12.56;100.00
56681;BME280;42558;52.388;13.390;2022-09-09T05:33:43;100635.83;;;12.62;100.00
56681;BME280;42558;52.388;13.390;2022-09-09T05:36:19;100637.44;;;12.65;100.00
56681;BME280;42558;52.388;13.390;2022-09-09T05:38:47;100638.84;;;12.65;100.00
56681;BME280;42558;52.388;13.390;2022-09-09T05:41:14;100639.91;;;12.68;100.00
56681;BME280;42558;52.388;13.390;2022-09-09T05:43:44;100636.40;;;12.72;100.00
56681;BME280;42558;52.388;13.390;2022-09-09T05:46:18;100635.17;;;12.78;100.00
56681;BME280;42558;52.388;13.390;2022-09-09T05:48:47;100634.47;;;12.83;100.00
56681;BME280;42558;52.388;13.390;2022-09-09T05:51:18;100642.27;;;12.92;100.00
56681;BME280;42558;52.388;13.390;2022-09-09T05:53:48;100648.10;;;12.92;100.00
56681;BME280;42558;52.388;13.390;2022-09-09T05:56:22;100651.97;;;12.95;100.00
56681;BME280;42558;52.388;13.390;2022-09-09T05:58:51;100648.65;;;13.01;100.00
56681;BME280;42558;52.388;13.390;2022-09-09T06:01:26;100648.33;;;13.18;100.00
56681;BME280;42558;52.388;13.390;2022-09-09T06:03:54;100654.70;;;13.25;100.00
56681;BME280;42558;52.388;13.390;2022-09-09T06:06:29;100650.83;;;13.41;100.00
56681;BME280;42558;52.388;13.390;2022-09-09T06:08:57;100651.90;;;13.40;100.00
56681;BME280;42558;52.388;13.390;2022-09-09T06:11:28;100653.13;;;13.59;100.00
56681;BME280;42558;52.388;13.390;2022-09-09T06:13:58;100655.95;;;13.71;100.00
56681;BME280;42558;52.388;13.390;2022-09-09T06:16:28;100654.50;;;13.93;100.00
56681;BME280;42558;52.388;13.390;2022-09-09T06:18:57;100654.48;;;14.03;100.00
56681;BME280;42558;52.388;13.390;2022-09-09T06:21:31;100661.20;;;14.08;100.00
56681;BME280;42558;52.388;13.390;2022-09-09T06:24:00;100659.34;;;14.31;100.00
56681;BME280;42558;52.388;13.390;2022-09-09T06:26:33;100661.14;;;14.26;100.00
56681;BME280;42558;52.388;13.390;2022-09-09T06:29:02;100663.11;;;14.18;100.00
56681;BME280;42558;52.388;13.390;2022-09-09T06:31:35;100663.45;;;14.23;100.00
56681;BME280;42558;52.388;13.390;2022-09-09T06:34:08;100659.31;;;14.41;100.00
56681;BME280;42558;52.388;13.390;2022-09-09T06:36:37;100665.50;;;14.48;100.00
56681;BME280;42558;52.388;13.390;2022-09-09T06:39:06;100660.74;;;14.83;100.00
56681;BME280;42558;52.388;13.390;2022-09-09T06:41:41;100660.96;;;15.08;100.00
56681;BME280;42558;52.388;13.390;2022-09-09T06:44:09;100662.00;;;15.11;100.00
56681;BME280;42558;52.388;13.390;2022-09-09T06:46:38;100661.59;;;15.42;100.00
56681;BME280;42558;52.388;13.390;2022-09-09T06:49:08;100658.91;;;15.71;100.00
56681;BME280;42558;52.388;13.390;2022-09-09T06:51:37;100658.17;;;15.91;100.00
56681;BME280;42558;52.388;13.390;2022-09-09T06:54:12;100658.24;;;16.02;100.00
56681;BME280;42558;52.388;13.390;2022-09-09T06:56:41;100660.30;;;15.91;100.00
56681;BME280;42558;52.388;13.390;2022-09-09T06:59:10;100658.66;;;15.97;100.00
56681;BME280;42558;52.388;13.390;2022-09-09T07:01:41;100664.41;;;16.05;100.00
56681;BME280;42558;52.388;13.390;2022-09-09T07:04:08;100666.73;;;16.04;100.00
56681;BME280;42558;52.388;13.390;2022-09-09T07:06:44;100665.54;;;16.16;100.00
56681;BME280;42558;52.388;13.390;2022-09-09T07:09:14;100667.91;;;16.41;99.82
56681;BME280;42558;52.388;13.390;2022-09-09T07:11:45;100669.74;;;16.51;99.71
56681;BME280;42558;52.388;13.390;2022-09-09T07:14:13;100674.54;;;16.66;100.00
56681;BME280;42558;52.388;13.390;2022-09-09T07:16:42;100674.77;;;16.76;99.98
56681;BME280;42558;52.388;13.390;2022-09-09T07:19:11;100671.42;;;16.60;97.53
56681;BME280;42558;52.388;13.390;2022-09-09T07:21:39;100674.02;;;16.35;98.90
56681;BME280;42558;52.388;13.390;2022-09-09T07:24:09;100672.87;;;16.57;99.97
56681;BME280;42558;52.388;13.390;2022-09-09T07:26:39;100677.39;;;16.81;98.81
56681;BME280;42558;52.388;13.390;2022-09-09T07:29:07;100668.77;;;16.88;99.09
56681;BME280;42558;52.388;13.390;2022-09-09T07:31:38;100671.11;;;17.10;99.10
56681;BME280;42558;52.388;13.390;2022-09-09T07:34:07;100673.46;;;17.43;96.86
56681;BME280;42558;52.388;13.390;2022-09-09T07:36:37;100675.06;;;17.43;94.94
56681;BME280;42558;52.388;13.390;2022-09-09T07:39:11;100677.36;;;17.43;95.08
56681;BME280;42558;52.388;13.390;2022-09-09T07:41:45;100678.61;;;17.43;94.72
56681;BME280;42558;52.388;13.390;2022-09-09T07:44:19;100680.82;;;17.26;94.54
56681;BME280;42558;52.388;13.390;2022-09-09T07:46:48;100674.02;;;17.31;93.44
56681;BME280;42558;52.388;13.390;2022-09-09T07:49:15;100679.41;;;17.48;94.24
56681;BME280;42558;52.388;13.390;2022-09-09T07:51:45;100680.81;;;17.38;93.69
56681;BME280;42558;52.388;13.390;2022-09-09T07:54:15;100684.13;;;17.77;93.15
56681;BME280;42558;52.388;13.390;2022-09-09T07:56:42;100687.27;;;17.46;91.76
56681;BME280;42558;52.388;13.390;2022-09-09T07:59:09;100691.41;;;17.32;93.33
56681;BME280;42558;52.388;13.390;2022-09-09T08:01:44;100690.57;;;17.51;93.14
56681;BME280;42558;52.388;13.390;2022-09-09T08:04:16;100695.30;;;17.33;93.30
56681;BME280;42558;52.388;13.390;2022-09-09T08:06:54;100691.39;;;17.88;93.83
56681;BME280;42558;52.388;13.390;2022-09-09T08:09:22;100698.53;;;18.16;88.89
56681;BME280;42558;52.388;13.390;2022-09-09T08:11:51;100703.13;;;17.44;90.73
56681;BME280;42558;52.388;13.390;2022-09-09T08:14:18;100704.86;;;17.47;93.00
56681;BME280;42558;52.388;13.390;2022-09-09T08:16:48;100703.77;;;17.72;91.63
56681;BME280;42558;52.388;13.390;2022-09-09T08:19:16;100704.85;;;17.81;90.88
56681;BME280;42558;52.388;13.390;2022-09-09T08:21:44;100703.00;;;17.87;91.75
56681;BME280;42558;52.388;13.390;2022-09-09T08:24:12;100703.01;;;17.96;92.44
56681;BME280;42558;52.388;13.390;2022-09-09T08:26:46;100702.06;;;18.09;92.60
56681;BME280;42558;52.388;13.390;2022-09-09T08:29:16;100699.79;;;18.06;91.22
56681;BME280;42558;52.388;13.390;2022-09-09T08:31:53;100702.70;;;17.71;92.18
56681;BME280;42558;52.388;13.390;2022-09-09T08:34:21;100704.90;;;17.33;93.64
56681;BME280;42558;52.388;13.390;2022-09-09T08:36:50;100714.55;;;17.05;95.15
56681;BME280;42558;52.388;13.390;2022-09-09T08:39:20;100712.12;;;16.86;96.70
56681;BME280;42558;52.388;13.390;2022-09-09T08:42:04;100707.21;;;16.82;96.43
56681;BME280;42558;52.388;13.390;2022-09-09T08:45:12;100713.54;;;16.73;95.68
56681;BME280;42558;52.388;13.390;2022-09-09T08:48:16;100715.30;;;16.73;96.21
56681;BME280;42558;52.388;13.390;2022-09-09T08:50:50;100714.01;;;16.78;94.73
56681;BME280;42558;52.388;13.390;2022-09-09T08:53:28;100715.43;;;17.04;95.17
56681;BME280;42558;52.388;13.390;2022-09-09T08:56:01;100715.47;;;17.14;93.39
56681;BME280;42558;52.388;13.390;2022-09-09T08:58:33;100712.52;;;17.46;93.29
56681;BME280;42558;52.388;13.390;2022-09-09T09:07:17;100710.10;;;17.97;89.84
56681;BME280;42558;52.388;13.390;2022-09-09T09:10:18;100714.52;;;18.08;87.54
56681;BME280;42558;52.388;13.390;2022-09-09T09:13:20;100715.52;;;18.23;86.81
56681;BME280;42558;52.388;13.390;2022-09-09T09:16:00;100714.63;;;18.13;86.20
56681;BME280;42558;52.388;13.390;2022-09-09T09:18:29;100711.17;;;17.87;87.09
56681;BME280;42558;52.388;13.390;2022-09-09T09:21:39;100711.35;;;18.45;87.53
56681;BME280;42558;52.388;13.390;2022-09-09T09:24:27;100709.52;;;18.66;85.83
56681;BME280;42558;52.388;13.390;2022-09-09T09:27:12;100703.62;;;19.41;85.26
56681;BME280;42558;52.388;13.390;2022-09-09T09:29:41;100697.12;;;20.15;83.31
56681;BME280;42558;52.388;13.390;2022-09-09T09:32:34;100698.89;;;20.28;77.99
56681;BME280;42558;52.388;13.390;2022-09-09T09:35:09;100698.11;;;19.70;80.28
56681;BME280;42558;52.388;13.390;2022-09-09T09:37:41;100697.45;;;20.02;78.38
56681;BME280;42558;52.388;13.390;2022-09-09T09:40:30;100702.23;;;19.54;79.59
56681;BME280;42558;52.388;13.390;2022-09-09T09:43:00;100699.61;;;19.95;79.24
56681;BME280;42558;52.388;13.390;2022-09-09T09:45:54;100701.33;;;20.24;76.55
56681;BME280;42558;52.388;13.390;2022-09-09T09:48:41;100695.53;;;20.21;79.16
56681;BME280;42558;52.388;13.390;2022-09-09T09:51:13;100698.20;;;20.85;78.29
56681;BME280;42558;52.388;13.390;2022-09-09T09:53:43;100695.14;;;21.10;76.22
56681;BME280;42558;52.388;13.390;2022-09-09T09:56:13;100695.41;;;21.12;76.11
56681;BME280;42558;52.388;13.390;2022-09-09T10:03:54;100697.52;;;21.13;73.83
56681;BME280;42558;52.388;13.390;2022-09-09T10:06:36;100701.74;;;21.15;74.98
56681;BME280;42558;52.388;13.390;2022-09-09T10:12:24;100709.34;;;20.71;76.73
56681;BME280;42558;52.388;13.390;2022-09-09T10:18:22;100706.80;;;20.48;74.83
56681;BME280;42558;52.388;13.390;2022-09-09T10:21:25;100712.95;;;20.69;76.36
56681;BME280;42558;52.388;13.390;2022-09-09T10:33:32;100712.16;;;20.26;76.56
56681;BME280;42558;52.388;13.390;2022-09-09T10:36:18;100712.39;;;20.32;78.32
56681;BME280;42558;52.388;13.390;2022-09-09T10:38:52;100708.09;;;20.32;75.90
56681;BME280;42558;52.388;13.390;2022-09-09T10:42:14;100705.28;;;20.23;78.01
56681;BME280;42558;52.388;13.390;2022-09-09T10:45:17;100703.83;;;19.76;74.92
56681;BME280;42558;52.388;13.390;2022-09-09T10:56:22;100687.03;;;21.29;70.84
56681;BME280;42558;52.388;13.390;2022-09-09T10:59:00;100694.52;;;21.52;71.70
56681;BME280;42558;52.388;13.390;2022-09-09T11:01:47;100701.23;;;21.14;70.12
56681;BME280;42558;52.388;13.390;2022-09-09T11:04:26;100703.66;;;20.82;73.09
56681;BME280;42558;52.388;13.390;2022-09-09T11:07:02;100699.37;;;21.17;71.48
56681;BME280;42558;52.388;13.390;2022-09-09T11:09:44;100693.98;;;21.74;71.86
56681;BME280;42558;52.388;13.390;2022-09-09T11:12:19;100692.73;;;22.00;67.30
56681;BME280;42558;52.388;13.390;2022-09-09T11:15:16;100690.34;;;22.02;67.55
56681;BME280;42558;52.388;13.390;2022-09-09T11:17:51;100691.19;;;22.29;65.86
56681;BME280;42558;52.388;13.390;2022-09-09T11:20:19;100693.85;;;22.04;67.50
56681;BME280;42558;52.388;13.390;2022-09-09T11:25:27;100692.53;;;21.47;70.22
56681;BME280;42558;52.388;13.390;2022-09-09T11:28:09;100692.36;;;21.85;69.73
56681;BME280;42558;52.388;13.390;2022-09-09T11:34:09;100689.79;;;21.61;69.66
56681;BME280;42558;52.388;13.390;2022-09-09T11:37:06;100691.13;;;21.41;70.21
56681;BME280;42558;52.388;13.390;2022-09-09T11:42:39;100680.18;;;21.90;67.92
56681;BME280;42558;52.388;13.390;2022-09-09T11:45:24;100680.38;;;22.16;65.34
56681;BME280;42558;52.388;13.390;2022-09-09T11:47:57;100683.73;;;22.07;66.22
56681;BME280;42558;52.388;13.390;2022-09-09T11:53:03;100678.73;;;22.17;65.99
56681;BME280;42558;52.388;13.390;2022-09-09T11:55:34;100671.17;;;21.92;64.93
56681;BME280;42558;52.388;13.390;2022-09-09T11:58:15;100674.20;;;21.72;67.82
56681;BME280;42558;52.388;13.390;2022-09-09T12:00:47;100671.45;;;21.94;65.41
56681;BME280;42558;52.388;13.390;2022-09-09T12:06:13;100667.27;;;22.07;66.39
56681;BME280;42558;52.388;13.390;2022-09-09T12:08:47;100654.81;;;22.20;63.82
56681;BME280;42558;52.388;13.390;2022-09-09T12:11:26;100660.45;;;21.81;66.67
56681;BME280;42558;52.388;13.390;2022-09-09T12:13:59;100655.50;;;21.90;67.37
56681;BME280;42558;52.388;13.390;2022-09-09T12:16:37;100650.08;;;22.01;65.57
56681;BME280;42558;52.388;13.390;2022-09-09T12:19:20;100644.86;;;22.37;65.15
56681;BME280;42558;52.388;13.390;2022-09-09T12:22:27;100642.00;;;22.37;64.26
56681;BME280;42558;52.388;13.390;2022-09-09T12:25:29;100644.55;;;22.16;63.92
56681;BME280;42558;52.388;13.390;2022-09-09T12:28:27;100649.86;;;21.72;65.07
56681;BME280;42558;52.388;13.390;2022-09-09T12:34:44;100645.55;;;21.51;65.48
56681;BME280;42558;52.388;13.390;2022-09-09T12:37:25;100640.88;;;21.51;66.53
56681;BME280;42558;52.388;13.390;2022-09-09T12:39:58;100638.60;;;21.81;67.29
56681;BME280;42558;52.388;13.390;2022-09-09T12:42:27;100633.78;;;21.96;66.81
56681;BME280;42558;52.388;13.390;2022-09-09T12:45:14;100634.91;;;21.89;66.28
56681;BME280;42558;52.388;13.390;2022-09-09T12:48:01;100631.45;;;21.44;65.82
56681;BME280;42558;52.388;13.390;2022-09-09T12:50:33;100626.66;;;21.26;65.17
56681;BME280;42558;52.388;13.390;2022-09-09T12:53:08;100632.00;;;21.21;66.38
56681;BME280;42558;52.388;13.390;2022-09-09T12:55:38;100637.07;;;21.19;66.18
56681;BME280;42558;52.388;13.390;2022-09-09T12:58:06;100642.17;;;21.11;66.02
56681;BME280;42558;52.388;13.390;2022-09-09T13:00:34;100643.88;;;21.36;67.31
56681;BME280;42558;52.388;13.390;2022-09-09T13:03:18;100645.98;;;21.49;66.97
56681;BME280;42558;52.388;13.390;2022-09-09T13:05:47;100645.20;;;21.50;65.00
56681;BME280;42558;52.388;13.390;2022-09-09T13:08:15;100648.17;;;21.36;66.32
56681;BME280;42558;52.388;13.390;2022-09-09T13:13:40;100650.48;;;21.84;68.01
56681;BME280;42558;52.388;13.390;2022-09-09T13:16:29;100644.89;;;21.86;65.76
56681;BME280;42558;52.388;13.390;2022-09-09T13:19:16;100642.58;;;21.80;66.82
56681;BME280;42558;52.388;13.390;2022-09-09T13:21:43;100639.79;;;21.78;66.36
56681;BME280;42558;52.388;13.390;2022-09-09T13:24:31;100636.19;;;21.73;66.71
56681;BME280;42558;52.388;13.390;2022-09-09T13:27:34;100630.71;;;21.77;67.68
56681;BME280;42558;52.388;13.390;2022-09-09T13:30:19;100621.77;;;21.71;65.57
56681;BME280;42558;52.388;13.390;2022-09-09T13:32:47;100620.85;;;21.82;66.65
56681;BME280;42558;52.388;13.390;2022-09-09T13:35:24;100624.61;;;21.72;67.24
56681;BME280;42558;52.388;13.390;2022-09-09T13:37:51;100627.48;;;21.61;68.67
56681;BME280;42558;52.388;13.390;2022-09-09T13:40:21;100626.16;;;21.68;70.35
56681;BME280;42558;52.388;13.390;2022-09-09T13:42:55;100619.98;;;21.61;68.75
56681;BME280;42558;52.388;13.390;2022-09-09T13:45:26;100622.85;;;21.56;68.75
56681;BME280;42558;52.388;13.390;2022-09-09T13:47:55;100620.84;;;21.62;68.25
56681;BME280;42558;52.388;13.390;2022-09-09T13:50:28;100623.40;;;21.60;69.41
56681;BME280;42558;52.388;13.390;2022-09-09T13:52:57;100623.41;;;21.49;69.54
56681;BME280;42558;52.388;13.390;2022-09-09T13:55:27;100627.55;;;21.20;69.27
56681;BME280;42558;52.388;13.390;2022-09-09T13:58:01;100631.27;;;21.06;69.83
56681;BME280;42558;52.388;13.390;2022-09-09T14:00:33;100634.46;;;21.00;73.01
56681;BME280;42558;52.388;13.390;2022-09-09T14:03:01;100638.73;;;21.01;75.85
56681;BME280;42558;52.388;13.390;2022-09-09T14:05:33;100645.83;;;20.80;77.31
56681;BME280;42558;52.388;13.390;2022-09-09T14:08:02;100647.77;;;20.62;79.96
56681;BME280;42558;52.388;13.390;2022-09-09T14:10:30;100650.55;;;20.47;80.47
56681;BME280;42558;52.388;13.390;2022-09-09T14:12:57;100654.82;;;20.34;80.55
56681;BME280;42558;52.388;13.390;2022-09-09T14:15:24;100652.40;;;19.99;84.31
56681;BME280;42558;52.388;13.390;2022-09-09T14:17:51;100648.09;;;19.66;84.07
56681;BME280;42558;52.388;13.390;2022-09-09T14:20:18;100652.20;;;19.57;85.25
56681;BME280;42558;52.388;13.390;2022-09-09T14:22:46;100647.58;;;19.57;84.30
56681;BME280;42558;52.388;13.390;2022-09-09T14:25:13;100642.81;;;19.41;86.24
56681;BME280;42558;52.388;13.390;2022-09-09T14:27:40;100639.00;;;19.65;88.52
56681;BME280;42558;52.388;13.390;2022-09-09T14:30:09;100635.24;;;19.87;83.58
56681;BME280;42558;52.388;13.390;2022-09-09T14:32:36;100636.00;;;19.92;83.66
56681;BME280;42558;52.388;13.390;2022-09-09T14:35:04;100631.20;;;19.98;82.76
56681;BME280;42558;52.388;13.390;2022-09-09T14:37:30;100635.55;;;19.95;81.64